Time;durP1;ratioP1;P1;durP2;ratioP2;P2;SDS_P1;SDS_P2;PMS_P1;PMS_P2;Temp;Humidity;BMP_temperature;BMP_pressure;BME280_temperature;BME280_humidity;BME280_pressure;Samples;Min_cycle;Max_cycle;Signal;HPM_P1;HPM_P2
2022/10/23 00:01:17;;;;;;;;;7.25;6.50;;;;;18.82;64.17;100429.75;4998106;28;45417;-60
2022/10/23 00:03:43;;;;;;;;;6.40;5.00;;;;;18.80;64.35;100420.00;4997493;28;45352;-61
2022/10/23 00:06:08;;;;;;;;;5.75;4.00;;;;;18.73;64.25;100409.16;4997615;28;45505;-61
2022/10/23 00:08:34;;;;;;;;;6.00;5.00;;;;;18.80;64.21;100411.66;4997589;28;45421;-61
2022/10/23 00:10:59;;;;;;;;;7.75;6.25;;;;;18.72;64.23;100384.44;4996545;28;45456;-61
2022/10/23 00:13:25;;;;;;;;;6.50;5.25;;;;;18.83;64.26;100402.75;4977264;28;46057;-61
2022/10/23 00:15:50;;;;;;;;;6.75;6.25;;;;;18.81;64.09;100403.06;4993853;28;45738;-61
2022/10/23 00:18:16;;;;;;;;;6.25;5.00;;;;;18.76;64.37;100391.94;4997385;28;45373;-59
2022/10/23 00:20:41;;;;;;;;;4.75;4.75;;;;;18.81;64.45;100403.06;4997445;28;45409;-59
2022/10/23 00:23:07;;;;;;;;;5.25;5.25;;;;;18.81;64.06;100400.28;4997493;28;45343;-59
2022/10/23 00:25:32;;;;;;;;;5.25;5.25;;;;;18.79;64.24;100391.38;4997130;28;45540;-59
2022/10/23 00:27:58;;;;;;;;;7.00;5.50;;;;;18.45;64.17;100341.03;4996934;28;45405;-60
2022/10/23 00:30:24;;;;;;;;;7.00;6.00;;;;;18.76;64.42;100391.09;4976375;28;45335;-59
2022/10/23 00:32:49;;;;;;;;;6.00;5.00;;;;;18.77;64.43;100389.97;4977873;28;45221;-59
2022/10/23 00:35:15;;;;;;;;;4.50;4.50;;;;;18.75;64.11;100387.50;4977537;28;46523;-60
2022/10/23 00:37:40;;;;;;;;;7.50;5.25;;;;;18.71;64.36;100389.13;4977916;28;45390;-60
2022/10/23 00:40:07;;;;;;;;;6.50;5.75;;;;;18.60;64.62;100365.22;4977604;28;45877;-60
2022/10/23 00:42:32;;;;;;;;;5.00;5.00;;;;;18.66;64.76;100384.41;4976241;28;45357;-60
2022/10/23 00:45:25;;;;;;;;;8.00;6.75;;;;;18.62;64.97;100371.34;4977398;28;45510;-60
2022/10/23 00:47:51;;;;;;;;;6.20;5.40;;;;;18.65;64.70;100371.63;4977259;28;45352;-60
2022/10/23 00:50:16;;;;;;;;;6.75;6.25;;;;;18.65;64.66;100357.72;4977815;28;45247;-60
2022/10/23 00:52:45;;;;;;;;;7.00;6.00;;;;;18.62;64.83;100361.03;4976574;28;45430;-60
2022/10/23 00:55:11;;;;;;;;;7.00;6.00;;;;;18.63;64.52;100356.34;4976233;28;46417;-60
2022/10/23 00:57:39;;;;;;;;;5.20;5.20;;;;;18.55;64.71;100339.09;4976376;28;45393;-60
2022/10/23 01:00:05;;;;;;;;;6.00;6.00;;;;;18.40;64.90;100319.59;4959829;28;45432;-59
2022/10/23 01:02:31;;;;;;;;;4.25;4.25;;;;;18.60;64.84;100341.03;4976059;28;45691;-59
2022/10/23 01:04:56;;;;;;;;;5.75;5.75;;;;;18.61;64.79;100328.00;4976879;28;45995;-60
2022/10/23 01:07:32;;;;;;;;;5.00;4.00;;;;;18.38;65.02;100296.84;4992223;28;45338;-60
2022/10/23 01:10:06;;;;;;;;;4.60;4.20;;;;;18.58;64.62;100318.25;4995833;28;45412;-59
2022/10/23 01:13:03;;;;;;;;;6.40;5.20;;;;;18.55;64.83;100330.75;4996874;28;45410;-60
2022/10/23 01:15:49;;;;;;;;;5.40;5.00;;;;;18.53;64.79;100321.03;4994271;28;46291;-60
2022/10/23 01:18:35;;;;;;;;;8.00;4.80;;;;;18.51;64.66;100318.53;4991972;28;45481;-60
2022/10/23 01:21:09;;;;;;;;;7.40;5.00;;;;;18.51;64.75;100315.75;4996968;28;45417;-59
2022/10/23 01:24:14;;;;;;;;;5.40;5.40;;;;;18.49;64.90;100306.00;4995307;28;45544;-59
2022/10/23 01:26:43;;;;;;;;;4.80;3.80;;;;;18.31;64.73;100282.38;4978128;28;47359;-58
2022/10/23 01:29:35;;;;;;;;;5.40;3.80;;;;;18.48;64.67;100293.22;4994820;28;45242;-59
2022/10/23 01:32:11;;;;;;;;;2.40;2.40;;;;;18.47;64.86;100281.28;4995068;28;45401;-59
2022/10/23 01:34:49;;;;;;;;;2.40;2.40;;;;;18.40;64.62;100276.00;4996587;28;45274;-59
2022/10/23 01:37:17;;;;;;;;;5.40;3.60;;;;;18.43;64.49;100281.00;4978872;28;46352;-59
2022/10/23 01:39:45;;;;;;;;;2.40;2.40;;;;;18.24;64.60;100252.06;4996161;28;45483;-59
2022/10/23 01:42:21;;;;;;;;;4.60;3.40;;;;;18.42;64.49;100286.84;4978792;28;45295;-60
2022/10/23 01:44:52;;;;;;;;;3.60;3.20;;;;;17.77;64.51;100188.09;4995024;28;45373;-60
2022/10/23 01:47:19;;;;;;;;;3.60;3.00;;;;;18.41;64.50;100279.63;4979287;28;45526;-60
2022/10/23 01:49:45;;;;;;;;;3.40;3.40;;;;;18.41;64.51;100286.00;4994592;28;45408;-60
2022/10/23 01:52:12;;;;;;;;;3.00;2.50;;;;;18.40;64.52;100286.28;4996230;28;45310;-60
2022/10/23 01:54:39;;;;;;;;;3.00;3.00;;;;;18.40;64.35;100284.34;4994952;28;45586;-60
2022/10/23 01:57:07;;;;;;;;;3.00;3.00;;;;;18.42;64.41;100278.50;4994579;28;46818;-60
2022/10/23 01:59:44;;;;;;;;;3.00;3.00;;;;;18.28;64.35;100247.66;4994732;28;45356;-60
2022/10/23 02:02:10;;;;;;;;;2.00;2.00;;;;;18.38;64.56;100261.56;4958494;28;45480;-59
2022/10/23 02:04:41;;;;;;;;;3.25;2.00;;;;;18.30;64.49;100250.97;4994306;28;45552;-60
2022/10/23 02:07:07;;;;;;;;;4.00;4.00;;;;;18.41;64.45;100265.72;4994333;28;45425;-60
2022/10/23 02:09:32;;;;;;;;;2.00;2.00;;;;;18.11;64.58;100206.25;4994652;28;45700;-60
2022/10/23 02:12:09;;;;;;;;;3.25;2.00;;;;;18.39;64.67;100240.16;4977140;28;45473;-60
2022/10/23 02:15:01;;;;;;;;;1.20;1.20;;;;;18.33;64.59;100236.56;4994975;28;45337;-60
2022/10/23 02:17:52;;;;;;;;;3.00;3.00;;;;;18.35;64.60;100245.44;4978387;28;46335;-60
2022/10/23 02:20:23;;;;;;;;;3.60;2.80;;;;;18.36;64.87;100251.84;4996088;28;45365;-60
2022/10/23 02:23:18;;;;;;;;;2.00;2.00;;;;;18.34;64.71;100249.31;4995556;28;45368;-60
2022/10/23 02:25:53;;;;;;;;;2.80;2.80;;;;;18.36;64.91;100237.94;4993250;28;45409;-60
2022/10/23 02:28:21;;;;;;;;;3.80;3.80;;;;;18.35;64.78;100227.94;4978014;28;45460;-60
2022/10/23 02:30:47;;;;;;;;;2.80;2.80;;;;;18.37;64.90;100223.75;4976969;28;45402;-60
2022/10/23 02:33:12;;;;;;;;;3.50;3.50;;;;;17.82;64.89;100118.72;4994147;28;45231;-60
2022/10/23 02:35:38;;;;;;;;;2.25;2.00;;;;;18.40;64.76;100216.81;4995493;28;45204;-59
2022/10/23 02:38:29;;;;;;;;;3.75;2.75;;;;;18.37;65.04;100212.66;4994715;28;46120;-60
2022/10/23 02:40:55;;;;;;;;;3.00;3.00;;;;;18.31;64.79;100204.59;4994993;28;45394;-60
2022/10/23 02:43:27;;;;;;;;;4.00;4.00;;;;;18.32;65.13;100198.78;4994071;28;45403;-60
2022/10/23 02:45:59;;;;;;;;;3.20;3.20;;;;;18.22;65.01;100177.38;4994203;28;45454;-60
2022/10/23 02:48:45;;;;;;;;;3.00;3.00;;;;;18.31;65.14;100199.03;5010038;28;47728;-60
2022/10/23 02:51:48;;;;;;;;;4.00;4.00;;;;;18.30;65.32;100200.97;4995122;28;45289;-60
2022/10/23 02:54:29;;;;;;;;;2.60;2.60;;;;;18.00;65.26;100152.63;4992476;28;45484;-60
2022/10/23 02:57:02;;;;;;;;;4.60;2.00;;;;;18.27;65.71;100187.66;4980731;28;45375;-60
2022/10/23 02:59:36;;;;;;;;;2.00;2.00;;;;;18.24;65.47;100188.19;4994554;28;45839;-60
2022/10/23 03:02:05;;;;;;;;;4.00;3.00;;;;;18.24;65.66;100179.88;4993714;28;45553;-60
2022/10/23 03:04:31;;;;;;;;;0.20;0.20;;;;;18.20;65.63;100182.38;4993480;28;45295;-60
2022/10/23 03:06:56;;;;;;;;;2.25;2.25;;;;;18.19;66.13;100169.59;4994832;28;45256;-60
2022/10/23 03:09:22;;;;;;;;;2.50;2.25;;;;;18.18;65.82;100176.25;4993498;28;46540;-60
2022/10/23 03:11:47;;;;;;;;;5.00;4.00;;;;;18.09;65.99;100152.94;4993450;28;45356;-60
2022/10/23 03:14:13;;;;;;;;;3.50;2.50;;;;;18.09;66.04;100148.22;4993398;28;45362;-60
2022/10/23 03:16:39;;;;;;;;;4.25;3.00;;;;;18.12;66.37;100163.47;4995004;28;45359;-60
2022/10/23 03:19:04;;;;;;;;;5.25;3.25;;;;;18.08;66.47;100160.44;4993935;28;46355;-60
2022/10/23 03:21:29;;;;;;;;;4.25;4.00;;;;;18.06;66.76;100159.88;4994729;28;45332;-60
2022/10/23 03:23:55;;;;;;;;;3.25;3.00;;;;;18.04;66.80;100162.06;4997694;28;45216;-60
2022/10/23 03:26:20;;;;;;;;;3.00;2.50;;;;;18.00;66.65;100149.84;4998334;28;45153;-60
2022/10/23 03:28:46;;;;;;;;;3.00;3.00;;;;;17.96;67.05;100130.13;4997660;28;46373;-60
2022/10/23 03:31:11;;;;;;;;;4.00;4.00;;;;;17.87;66.94;100115.13;4979124;28;45387;-60
2022/10/23 03:33:37;;;;;;;;;3.00;3.00;;;;;17.88;67.21;100114.03;4978459;28;45458;-60
2022/10/23 03:36:03;;;;;;;;;2.50;2.50;;;;;17.91;67.34;100127.34;4978785;28;45747;-60
2022/10/23 03:38:28;;;;;;;;;5.25;4.00;;;;;17.91;67.41;100143.16;4976551;28;48070;-59
2022/10/23 03:40:54;;;;;;;;;5.25;4.00;;;;;17.60;67.71;100102.31;4977004;28;45496;-60
2022/10/23 03:43:19;;;;;;;;;5.75;5.50;;;;;17.88;67.52;100139.03;4977159;28;45571;-60
2022/10/23 03:45:45;;;;;;;;;3.75;3.75;;;;;17.82;67.76;100145.69;4978449;28;45381;-60
2022/10/23 03:48:10;;;;;;;;;3.75;3.00;;;;;17.81;67.89;100150.38;4960460;28;47376;-60
2022/10/23 03:50:36;;;;;;;;;6.00;5.00;;;;;17.80;67.91;100137.63;4978336;28;45286;-59
2022/10/23 03:53:01;;;;;;;;;6.00;1.25;;;;;17.82;67.82;100131.78;4977121;28;45480;-59
2022/10/23 03:55:27;;;;;;;;;4.00;4.00;;;;;17.81;67.84;100132.88;4978406;28;45423;-60
2022/10/23 03:57:55;;;;;;;;;3.50;3.50;;;;;17.80;68.00;100120.97;4978290;28;45374;-60
2022/10/23 04:00:21;;;;;;;;;4.20;4.00;;;;;17.83;67.83;100136.22;4977511;28;45596;-60
2022/10/23 04:02:47;;;;;;;;;2.25;2.25;;;;;17.83;67.86;100136.22;4978279;28;45324;-60
2022/10/23 04:05:12;;;;;;;;;5.00;4.25;;;;;17.82;68.19;100149.25;4978209;28;45394;-60
2022/10/23 04:07:38;;;;;;;;;5.00;3.75;;;;;17.85;67.97;100147.88;4976778;28;46675;-60
2022/10/23 04:10:04;;;;;;;;;4.00;4.00;;;;;17.84;67.92;100146.22;4977654;28;45322;-59
2022/10/23 04:12:29;;;;;;;;;2.80;2.60;;;;;17.72;68.02;100133.44;4978106;28;45443;-59
2022/10/23 04:14:55;;;;;;;;;4.75;3.50;;;;;17.73;68.21;100137.88;4976687;28;45373;-60
2022/10/23 04:17:20;;;;;;;;;3.50;3.50;;;;;17.56;68.56;100110.38;4959957;28;47801;-60
2022/10/23 04:19:46;;;;;;;;;6.50;4.50;;;;;17.74;68.18;100134.00;4977196;28;45350;-60
2022/10/23 04:22:11;;;;;;;;;1.50;1.50;;;;;17.63;68.72;100126.75;4978048;28;45267;-60
2022/10/23 04:24:37;;;;;;;;;6.50;4.00;;;;;17.50;68.61;100108.69;4977817;28;45327;-60
2022/10/23 04:27:02;;;;;;;;;3.50;3.50;;;;;17.71;68.44;100140.09;4977731;28;46216;-60
2022/10/23 04:29:30;;;;;;;;;4.00;4.00;;;;;17.64;69.07;100135.91;4980811;28;45344;-60
2022/10/23 04:31:56;;;;;;;;;4.80;4.80;;;;;17.64;68.88;100136.75;4995861;28;45400;-60
2022/10/23 04:34:21;;;;;;;;;4.00;4.00;;;;;17.67;69.03;100144.50;4995442;28;45847;-60
2022/10/23 04:36:47;;;;;;;;;5.00;5.00;;;;;17.65;69.04;100135.63;4996467;28;46523;-59
2022/10/23 04:39:13;;;;;;;;;4.00;3.75;;;;;17.66;69.22;100119.84;4996873;28;45420;-59
2022/10/23 04:41:38;;;;;;;;;3.00;2.80;;;;;17.71;69.36;100114.28;4996735;28;45468;-59
2022/10/23 04:44:05;;;;;;;;;3.75;3.75;;;;;17.70;69.27;100104.28;4976454;28;45644;-60
2022/10/23 04:46:30;;;;;;;;;4.40;3.40;;;;;17.73;69.31;100101.78;4996917;28;46192;-59
2022/10/23 04:48:56;;;;;;;;;5.75;5.75;;;;;17.72;69.32;100116.78;4996795;28;45447;-60
2022/10/23 04:51:21;;;;;;;;;4.75;4.75;;;;;17.62;69.43;100130.66;4996984;28;45295;-60
2022/10/23 04:53:47;;;;;;;;;3.75;3.75;;;;;17.74;69.54;100167.31;4996571;28;45598;-60
2022/10/23 04:56:13;;;;;;;;;5.00;5.00;;;;;17.81;69.29;100166.19;4996881;28;45348;-60
2022/10/23 04:58:39;;;;;;;;;4.20;3.80;;;;;17.58;69.71;100135.06;4996456;28;45319;-60
2022/10/23 05:01:06;;;;;;;;;5.75;5.25;;;;;17.77;69.69;100160.34;4994876;28;45485;-60
2022/10/23 05:03:31;;;;;;;;;5.00;5.00;;;;;17.58;69.57;100118.44;4995657;28;45496;-60
2022/10/23 05:05:57;;;;;;;;;4.00;4.00;;;;;17.71;69.62;100117.03;4994790;28;45858;-60
2022/10/23 05:08:22;;;;;;;;;4.00;4.00;;;;;17.75;70.09;100113.47;4994778;28;45557;-60
2022/10/23 05:10:51;;;;;;;;;7.00;6.00;;;;;17.79;70.05;100115.69;4995221;28;45378;-60
2022/10/23 05:13:18;;;;;;;;;5.80;4.00;;;;;17.55;69.95;100085.69;4996857;28;45538;-60
2022/10/23 05:15:47;;;;;;;;;4.00;4.00;;;;;17.79;69.95;100108.19;4995754;28;47549;-60
2022/10/23 05:18:28;;;;;;;;;5.60;5.00;;;;;17.68;70.37;100103.75;4994867;28;45480;-59
2022/10/23 05:20:58;;;;;;;;;5.60;5.60;;;;;17.79;69.88;100101.81;4995066;28;45352;-60
2022/10/23 05:23:23;;;;;;;;;4.80;3.60;;;;;17.77;70.41;100107.63;4995438;28;45586;-60
2022/10/23 05:25:49;;;;;;;;;7.00;7.00;;;;;17.80;70.31;100097.91;4978306;28;47547;-60
2022/10/23 05:28:14;;;;;;;;;5.75;4.50;;;;;17.79;70.52;100086.00;4995994;28;45429;-60
2022/10/23 05:30:40;;;;;;;;;8.50;6.75;;;;;17.84;70.56;100072.13;4994904;28;45488;-60
2022/10/23 05:33:05;;;;;;;;;5.75;5.75;;;;;17.87;70.59;100065.16;4995057;28;45421;-60
2022/10/23 05:35:31;;;;;;;;;7.00;7.00;;;;;17.80;70.98;100064.59;4996320;28;46547;-60
2022/10/23 05:37:56;;;;;;;;;6.50;6.00;;;;;17.79;70.75;100074.91;4996224;28;45396;-60
2022/10/23 05:40:22;;;;;;;;;6.00;5.25;;;;;17.46;70.89;100027.16;4994523;28;45370;-59
2022/10/23 05:42:48;;;;;;;;;6.80;6.80;;;;;17.56;71.63;100042.97;4996386;28;45375;-59
2022/10/23 05:45:14;;;;;;;;;7.00;5.25;;;;;17.52;70.80;100026.03;4995618;28;46741;-60
2022/10/23 05:47:39;;;;;;;;;5.00;5.00;;;;;17.67;71.38;100024.38;4977545;28;45345;-60
2022/10/23 05:50:05;;;;;;;;;5.75;5.25;;;;;17.82;70.94;100048.53;4974934;28;45542;-60
2022/10/23 05:52:30;;;;;;;;;8.50;7.00;;;;;17.65;70.89;100018.28;4975422;28;45216;-60
2022/10/23 05:54:56;;;;;;;;;5.00;4.75;;;;;17.86;70.68;100052.41;4976351;28;46366;-60
2022/10/23 05:57:21;;;;;;;;;6.75;6.75;;;;;17.83;70.75;100047.41;4976241;28;45744;-60
2022/10/23 05:59:47;;;;;;;;;7.75;6.00;;;;;17.91;70.87;100059.88;4975075;28;45877;-61
2022/10/23 06:02:12;;;;;;;;;9.25;8.25;;;;;17.89;70.65;100054.63;4976610;28;45428;-60
2022/10/23 06:04:38;;;;;;;;;5.50;5.00;;;;;17.35;70.71;99990.25;4974741;28;46833;-60
2022/10/23 06:07:03;;;;;;;;;7.75;6.00;;;;;17.88;70.47;100078.78;4975570;28;45299;-60
2022/10/23 06:09:29;;;;;;;;;3.75;3.75;;;;;17.87;70.71;100059.59;4958829;28;45433;-58
2022/10/23 06:11:54;;;;;;;;;6.00;6.00;;;;;17.78;70.94;100041.84;4976721;28;45255;-63
2022/10/23 06:14:20;;;;;;;;;5.75;4.00;;;;;17.81;70.71;100066.28;4974802;28;45411;-60
2022/10/23 06:16:45;;;;;;;;;8.00;6.25;;;;;17.78;70.74;100059.34;4976098;28;45357;-60
2022/10/23 06:19:11;;;;;;;;;5.00;5.00;;;;;17.77;71.10;100063.22;4976044;28;45430;-60
2022/10/23 06:21:37;;;;;;;;;6.75;5.50;;;;;17.74;71.00;100061.84;4976104;28;45247;-60
2022/10/23 06:24:04;;;;;;;;;8.20;6.80;;;;;17.72;70.97;100063.25;4975814;28;45742;-63
2022/10/23 06:26:30;;;;;;;;;6.00;6.00;;;;;17.48;71.28;100034.09;4974316;28;45369;-60
2022/10/23 06:28:55;;;;;;;;;4.25;4.25;;;;;17.45;71.17;100009.66;4976214;28;45476;-60
2022/10/23 06:31:25;;;;;;;;;6.75;6.75;;;;;17.68;71.20;100039.91;4989229;28;45740;-61
2022/10/23 06:33:51;;;;;;;;;10.20;4.80;;;;;17.53;71.24;100021.31;4994151;28;46891;-61
2022/10/23 06:36:17;;;;;;;;;8.40;7.60;;;;;17.66;70.87;100034.63;4994834;28;45521;-61
2022/10/23 06:38:42;;;;;;;;;8.00;5.25;;;;;17.66;71.09;100040.19;4995121;28;45298;-61
2022/10/23 06:41:19;;;;;;;;;14.00;7.00;;;;;17.68;71.48;100031.59;4995355;28;45660;-61
2022/10/23 06:43:47;;;;;;;;;8.00;8.00;;;;;17.68;71.04;100028.81;4994540;28;45230;-60
2022/10/23 06:46:12;;;;;;;;;6.00;5.60;;;;;17.68;71.24;100024.13;4995067;28;45385;-60
2022/10/23 06:48:39;;;;;;;;;10.50;6.75;;;;;17.64;70.88;100025.75;4976030;28;45362;-61
2022/10/23 06:51:06;;;;;;;;;7.00;7.00;;;;;17.71;70.84;100039.34;4993979;28;45469;-62
2022/10/23 06:53:32;;;;;;;;;7.40;6.40;;;;;17.67;71.08;100029.94;4994892;28;45704;-60
2022/10/23 06:55:59;;;;;;;;;7.25;6.50;;;;;17.73;71.12;100024.09;4994870;28;45405;-60
2022/10/23 06:58:25;;;;;;;;;9.00;9.00;;;;;17.73;70.97;100026.03;4996888;28;45283;-60
2022/10/23 07:00:51;;;;;;;;;7.60;5.80;;;;;17.58;70.89;100001.91;4998895;28;45272;-60
2022/10/23 07:03:16;;;;;;;;;7.00;7.00;;;;;17.70;71.06;100012.72;4998299;28;45349;-60
2022/10/23 07:05:43;;;;;;;;;7.25;7.00;;;;;17.73;70.91;100013.00;4997711;28;45389;-61
2022/10/23 07:08:09;;;;;;;;;5.60;5.60;;;;;17.52;70.78;99981.66;4998488;28;45438;-61
2022/10/23 07:10:35;;;;;;;;;5.40;5.40;;;;;17.72;70.62;100016.88;4998580;28;45473;-60
2022/10/23 07:13:02;;;;;;;;;7.50;7.00;;;;;17.73;70.78;100010.22;4998076;28;46406;-61
2022/10/23 07:15:27;;;;;;;;;7.40;6.00;;;;;17.71;70.78;100001.34;4998282;28;45239;-61
2022/10/23 07:17:53;;;;;;;;;7.25;7.25;;;;;17.73;70.67;100004.66;4996678;28;45401;-61
2022/10/23 07:20:18;;;;;;;;;8.25;8.25;;;;;17.75;70.54;100012.72;4998367;28;45188;-61
2022/10/23 07:22:53;;;;;;;;;7.00;7.00;;;;;17.75;70.56;100015.50;4997754;28;45292;-60
2022/10/23 07:25:20;;;;;;;;;6.20;6.20;;;;;17.68;70.73;100004.69;5029938;28;45398;-62
2022/10/23 07:27:45;;;;;;;;;7.00;7.00;;;;;17.75;70.89;100018.25;4996866;28;45192;-64
2022/10/23 07:30:12;;;;;;;;;7.00;7.00;;;;;17.63;70.66;99998.28;4994233;28;45361;-62
2022/10/23 07:32:37;;;;;;;;;6.40;6.40;;;;;17.72;70.58;100007.75;4978336;28;47296;-62
2022/10/23 07:35:03;;;;;;;;;11.25;9.75;;;;;17.59;70.51;99982.22;4976790;28;45338;-61
2022/10/23 07:37:29;;;;;;;;;9.00;8.00;;;;;17.80;70.23;100009.09;4978148;28;45433;-62
2022/10/23 07:39:54;;;;;;;;;7.50;7.50;;;;;17.57;70.61;99975.28;4945016;28;45374;-59
2022/10/23 07:42:20;;;;;;;;;9.25;7.00;;;;;17.78;70.35;100009.41;4977831;28;46074;-62
2022/10/23 07:44:45;;;;;;;;;11.00;9.00;;;;;17.74;70.33;99984.16;4976905;28;45336;-62
2022/10/23 07:47:11;;;;;;;;;11.25;10.50;;;;;17.82;70.32;99998.56;4978305;28;45377;-60
2022/10/23 07:49:37;;;;;;;;;7.75;6.75;;;;;17.82;70.46;99995.78;4973665;28;45328;-61
2022/10/23 07:52:04;;;;;;;;;9.75;7.00;;;;;17.79;70.31;99996.34;4974132;28;45434;-61
2022/10/23 07:54:32;;;;;;;;;7.80;6.60;;;;;17.83;69.82;99998.28;4972378;28;45186;-61
2022/10/23 07:56:58;;;;;;;;;10.20;8.20;;;;;17.83;70.26;99998.28;4976930;28;45402;-60
2022/10/23 07:59:24;;;;;;;;;8.20;7.80;;;;;17.81;69.95;99992.19;4976722;28;45596;-61
2022/10/23 08:01:50;;;;;;;;;9.00;7.00;;;;;17.87;69.93;99999.38;4992616;28;48279;-61
2022/10/23 08:04:15;;;;;;;;;6.75;6.75;;;;;17.90;69.98;100003.56;4960701;28;45468;-61
2022/10/23 08:06:41;;;;;;;;;7.25;6.00;;;;;17.88;69.65;99998.28;4977850;28;45382;-61
2022/10/23 08:09:07;;;;;;;;;8.00;7.00;;;;;17.87;69.65;99999.38;4959531;28;45596;-61
2022/10/23 08:11:34;;;;;;;;;6.50;5.50;;;;;17.90;69.67;99995.22;4944356;28;47455;-60
2022/10/23 08:14:01;;;;;;;;;7.00;6.40;;;;;17.89;69.47;99983.28;4976564;28;45275;-63
2022/10/23 08:16:27;;;;;;;;;10.00;7.60;;;;;17.81;69.42;99966.34;4966741;28;45402;-66
2022/10/23 08:18:53;;;;;;;;;7.75;7.75;;;;;17.99;69.57;99984.41;4991436;28;45477;-72
2022/10/23 08:21:18;;;;;;;;;9.40;6.60;;;;;18.00;69.43;99986.88;4948379;28;46095;-66
2022/10/23 08:23:44;;;;;;;;;7.25;7.25;;;;;18.06;68.87;99996.06;4994862;28;45467;-63
2022/10/23 08:26:10;;;;;;;;;6.00;6.00;;;;;18.10;69.14;99985.22;4973204;28;45472;-62
2022/10/23 08:28:35;;;;;;;;;6.00;6.00;;;;;17.89;68.78;99936.09;4980134;28;45473;-63
2022/10/23 08:31:12;;;;;;;;;6.50;6.25;;;;;18.09;68.84;99967.72;4983206;28;45486;-62
2022/10/23 08:33:38;;;;;;;;;8.40;7.80;;;;;17.75;69.10;99907.25;4983409;28;45767;-62
2022/10/23 08:36:04;;;;;;;;;7.00;6.75;;;;;18.14;69.18;99961.31;4960450;28;46079;-64
2022/10/23 08:38:30;;;;;;;;;9.00;9.00;;;;;17.92;68.85;99920.81;4986146;28;45366;-63
2022/10/23 08:40:55;;;;;;;;;7.60;7.60;;;;;18.22;68.44;99973.81;4969179;28;45505;-64
2022/10/23 08:43:29;;;;;;;;;8.75;7.75;;;;;18.19;68.42;99977.97;4957087;28;45417;-64
2022/10/23 08:45:57;;;;;;;;;9.40;8.40;;;;;17.97;68.60;99940.25;4974425;28;45771;-62
2022/10/23 08:48:38;;;;;;;;;8.20;7.20;;;;;18.22;68.66;99982.13;4973777;28;45418;-64
2022/10/23 08:51:05;;;;;;;;;8.60;7.00;;;;;18.24;68.51;99977.97;4964437;28;50290;-63
2022/10/23 08:53:38;;;;;;;;;8.20;7.00;;;;;18.30;68.40;99987.09;4972087;28;45425;-63
2022/10/23 08:56:07;;;;;;;;;6.80;6.80;;;;;18.10;68.42;99935.25;4966775;28;45398;-63
2022/10/23 08:58:52;;;;;;;;;5.80;5.80;;;;;18.42;67.78;99976.50;4974196;28;45450;-64
2022/10/23 09:01:33;;;;;;;;;8.00;8.00;;;;;18.49;67.73;99973.44;4990877;28;46250;-63
2022/10/23 09:03:59;;;;;;;;;9.40;6.80;;;;;18.58;67.77;99967.28;4957370;28;45475;-63
2022/10/23 09:06:34;;;;;;;;;7.75;7.25;;;;;18.64;67.32;99963.38;4988409;28;45432;-62
2022/10/23 09:09:24;;;;;;;;;6.80;6.80;;;;;18.67;67.47;99951.66;4973797;28;45822;-63
2022/10/23 09:12:06;;;;;;;;;8.60;7.00;;;;;18.72;66.95;99959.16;4994534;28;45539;-63
2022/10/23 09:14:34;;;;;;;;;9.00;7.60;;;;;18.74;66.99;99965.28;4993850;28;45365;-63
2022/10/23 09:17:19;;;;;;;;;7.80;7.80;;;;;18.83;66.55;99963.53;4994506;28;45858;-63
2022/10/23 09:19:48;;;;;;;;;6.00;4.80;;;;;18.87;66.49;99964.63;4991538;28;45577;-62
2022/10/23 09:22:13;;;;;;;;;7.00;7.00;;;;;18.91;66.09;99951.00;4981939;28;45690;-64
2022/10/23 09:24:41;;;;;;;;;5.50;5.50;;;;;18.93;66.00;99952.38;4985881;28;45444;-65
2022/10/23 09:27:09;;;;;;;;;7.00;6.00;;;;;18.84;65.88;99931.88;4965223;28;45820;-64
2022/10/23 09:29:34;;;;;;;;;5.00;5.00;;;;;19.03;65.57;99954.28;4975017;28;45508;-63
2022/10/23 09:32:04;;;;;;;;;5.75;4.75;;;;;19.00;65.64;99943.69;5001724;28;47115;-62
2022/10/23 09:34:31;;;;;;;;;9.00;8.00;;;;;19.09;65.40;99946.72;4990617;28;45456;-62
2022/10/23 09:36:59;;;;;;;;;6.60;6.00;;;;;18.84;65.26;99915.19;4980445;28;45698;-61
2022/10/23 09:39:27;;;;;;;;;6.60;4.80;;;;;19.18;64.97;99938.59;4962068;28;45719;-62
2022/10/23 09:41:53;;;;;;;;;4.00;4.00;;;;;19.21;64.40;99936.06;4984859;28;45790;-62
2022/10/23 09:44:29;;;;;;;;;6.50;6.50;;;;;19.03;64.48;99903.38;4962054;28;45416;-64
2022/10/23 09:46:59;;;;;;;;;7.20;5.40;;;;;19.33;64.31;99943.22;4985565;28;45486;-61
2022/10/23 09:49:25;;;;;;;;;5.60;5.60;;;;;19.45;63.79;99938.13;4990506;28;45713;-61
2022/10/23 09:52:04;;;;;;;;;5.60;5.60;;;;;19.52;63.35;99939.72;4989280;28;45899;-62
2022/10/23 09:54:31;;;;;;;;;6.60;5.00;;;;;19.61;63.22;99941.59;4983555;28;45930;-63
2022/10/23 09:57:00;;;;;;;;;5.20;5.20;;;;;19.53;63.04;99908.81;5004140;28;45706;-61
2022/10/23 09:59:29;;;;;;;;;6.20;5.40;;;;;19.83;62.53;99945.00;4985657;28;45826;-61
2022/10/23 10:02:04;;;;;;;;;4.80;4.80;;;;;19.71;62.52;99898.06;4968868;28;45585;-62
2022/10/23 10:04:37;;;;;;;;;6.20;4.80;;;;;19.99;61.97;99920.63;4970781;28;45520;-61
2022/10/23 10:07:04;;;;;;;;;6.40;6.00;;;;;20.17;61.76;99931.00;4991813;28;45582;-62
2022/10/23 10:09:30;;;;;;;;;5.80;3.80;;;;;20.19;61.19;99925.16;4971679;28;45462;-64
2022/10/23 10:12:09;;;;;;;;;9.20;7.00;;;;;20.09;61.24;99894.63;4987061;28;47369;-65
2022/10/23 10:14:56;;;;;;;;;5.00;5.00;;;;;20.16;60.74;99895.94;4971352;28;45834;-67
2022/10/23 10:17:24;;;;;;;;;6.40;6.40;;;;;20.48;60.77;99920.63;4986236;28;45791;-67
2022/10/23 10:20:05;;;;;;;;;5.60;3.60;;;;;20.54;60.29;99925.00;4986731;28;45577;-68
2022/10/23 10:22:33;;;;;;;;;5.20;5.20;;;;;20.54;60.06;99919.44;4980496;28;45438;-67
2022/10/23 10:25:11;;;;;;;;;4.60;4.60;;;;;20.60;59.81;99923.81;4989359;28;45829;-68
2022/10/23 10:27:44;;;;;;;;;2.80;2.80;;;;;20.66;59.57;99913.41;4989817;28;46162;-69
2022/10/23 10:30:13;;;;;;;;;6.00;4.60;;;;;20.69;59.40;99902.47;4971275;28;45502;-67
2022/10/23 10:32:57;;;;;;;;;3.00;3.00;;;;;20.72;59.31;99924.16;4984897;28;45499;-66
2022/10/23 10:35:56;;;;;;;;;5.00;5.00;;;;;20.76;58.79;99916.03;4968408;28;45894;-67
2022/10/23 10:38:45;;;;;;;;;6.40;5.40;;;;;20.78;58.75;99908.22;4977017;28;45531;-69
2022/10/23 10:41:39;;;;;;;;;3.80;3.80;;;;;21.05;58.24;99915.09;4976471;28;45382;-68
2022/10/23 10:45:05;;;;;;;;;5.00;3.00;;;;;21.13;57.99;99919.97;4971378;28;45433;-67
2022/10/23 10:47:43;;;;;;;;;3.00;3.00;;;;;21.34;58.03;99902.88;4973022;28;45455;-64
2022/10/23 10:50:53;;;;;;;;;5.20;4.60;;;;;21.70;57.05;99900.63;4980007;28;45520;-67
2022/10/23 10:53:43;;;;;;;;;6.00;5.00;;;;;22.12;55.57;99895.06;4974230;28;45814;-67
2022/10/23 10:56:13;;;;;;;;;5.60;4.60;;;;;22.99;53.84;99885.91;4986025;28;46668;-69
2022/10/23 10:58:49;;;;;;;;;4.80;4.60;;;;;24.32;50.52;99893.06;4987949;28;45469;-70
2022/10/23 11:01:25;;;;;;;;;7.00;5.40;;;;;25.88;46.36;99896.50;4989952;28;45573;-64
2022/10/23 11:04:10;;;;;;;;;5.40;5.40;;;;;28.02;42.63;99873.56;4978477;28;45417;-64
2022/10/23 11:06:40;;;;;;;;;4.00;4.00;;;;;29.69;38.31;99881.34;4975802;28;45491;-66
2022/10/23 11:09:18;;;;;;;;;6.80;4.00;;;;;28.42;40.29;99855.09;4971499;28;45544;-64
2022/10/23 11:11:44;;;;;;;;;5.00;5.00;;;;;28.33;41.04;99879.81;4981995;28;45695;-66
2022/10/23 11:14:26;;;;;;;;;4.00;4.00;;;;;28.47;40.46;99868.97;4969434;28;45426;-63
2022/10/23 11:17:15;;;;;;;;;4.00;3.80;;;;;28.06;41.01;99865.22;4938533;28;46116;-64
2022/10/23 11:19:44;;;;;;;;;4.20;4.20;;;;;27.75;41.79;99861.81;4953231;28;45506;-64
2022/10/23 11:22:42;;;;;;;;;5.00;4.00;;;;;27.26;42.12;99854.03;4954735;28;45894;-64
2022/10/23 11:25:30;;;;;;;;;5.00;4.40;;;;;26.19;44.19;99844.75;4989012;28;45563;-64
2022/10/23 11:28:05;;;;;;;;;4.00;3.40;;;;;26.02;44.78;99854.09;4975263;28;47087;-63
2022/10/23 11:31:13;;;;;;;;;4.40;3.60;;;;;25.99;44.50;99833.94;4989946;28;45369;-63
2022/10/23 11:34:15;;;;;;;;;5.80;4.80;;;;;25.93;44.80;99840.09;4976194;28;45550;-63
2022/10/23 11:36:45;;;;;;;;;6.20;6.00;;;;;25.80;45.12;99841.97;4984718;28;45829;-65
2022/10/23 11:39:22;;;;;;;;;4.00;4.00;;;;;26.23;44.50;99840.13;4988989;28;47107;-64
2022/10/23 11:41:56;;;;;;;;;4.20;4.20;;;;;27.50;43.31;99844.00;4980544;28;45812;-63